Time;durP1;ratioP1;P1;durP2;ratioP2;P2;SDS_P1;SDS_P2;PMS_P1;PMS_P2;Temp;Humidity;BMP_temperature;BMP_pressure;BME280_temperature;BME280_humidity;BME280_pressure;Samples;Min_cycle;Max_cycle;Signal;HPM_P1;HPM_P2
2023/01/13 00:01:11;;;;;;;63.05;51.60;;;;;;;;;;5086507;28;20035;-74
2023/01/13 00:03:36;;;;;;;72.13;55.80;;;;;;;;;;5098712;28;20089;-73
2023/01/13 00:06:02;;;;;;;67.88;55.08;;;;;;;;;;5095767;28;20419;-74
2023/01/13 00:08:27;;;;;;;71.05;58.75;;;;;;;;;;5090311;28;20024;-74
2023/01/13 00:10:52;;;;;;;68.22;57.00;;;;;;;;;;5083952;28;20035;-74
2023/01/13 00:13:25;;;;;;;77.30;60.13;;;;;;;;;;5087364;28;20028;-74
2023/01/13 00:16:02;;;;;;;104.63;86.28;;;;;;;;;;5086789;28;20027;-76
2023/01/13 00:18:27;;;;;;;112.95;93.05;;;;;;;;;;5091104;28;20034;-74
2023/01/13 00:20:59;;;;;;;112.20;87.13;;;;;;;;;;5096046;28;20031;-78
2023/01/13 00:23:26;;;;;;;114.30;90.22;;;;;;;;;;5095335;28;20417;-74
2023/01/13 00:25:53;;;;;;;100.03;76.60;;;;;;;;;;5096883;28;20061;-73
2023/01/13 00:28:19;;;;;;;97.05;72.95;;;;;;;;;;5093844;28;20155;-73
2023/01/13 00:30:44;;;;;;;78.82;62.72;;;;;;;;;;5083013;28;20126;-73
2023/01/13 00:33:09;;;;;;;69.88;56.88;;;;;;;;;;5083527;28;20020;-76
2023/01/13 00:35:35;;;;;;;61.13;47.05;;;;;;;;;;5076331;28;20054;-75
2023/01/13 00:38:00;;;;;;;56.45;44.20;;;;;;;;;;5089994;28;20028;-73
2023/01/13 00:40:25;;;;;;;58.70;42.97;;;;;;;;;;5091364;28;20057;-74
2023/01/13 00:45:34;;;;;;;59.55;44.50;;;;;;;;;;5079771;28;20035;-74
2023/01/13 00:48:00;;;;;;;56.90;42.05;;;;;;;;;;5093204;28;20031;-73
2023/01/13 00:50:25;;;;;;;66.13;49.72;;;;;;;;;;5084085;28;20028;-73
2023/01/13 00:52:51;;;;;;;96.07;71.88;;;;;;;;;;5083180;28;20084;-73
2023/01/13 00:55:16;;;;;;;87.32;63.30;;;;;;;;;;5085357;28;20035;-75
2023/01/13 00:57:41;;;;;;;87.93;67.45;;;;;;;;;;5071525;28;20648;-76
2023/01/13 01:00:07;;;;;;;96.85;73.80;;;;;;;;;;5081860;28;20053;-74
2023/01/13 01:02:32;;;;;;;99.25;73.68;;;;;;;;;;5091760;28;20349;-73
2023/01/13 01:04:58;;;;;;;108.13;77.53;;;;;;;;;;5094947;28;20027;-73
2023/01/13 01:07:24;;;;;;;108.55;72.95;;;;;;;;;;5091347;28;20047;-73
2023/01/13 01:09:49;;;;;;;86.63;64.93;;;;;;;;;;5093927;28;20063;-74
2023/01/13 01:12:14;;;;;;;85.15;64.75;;;;;;;;;;5096079;28;20164;-74
2023/01/13 01:14:40;;;;;;;87.85;65.82;;;;;;;;;;5088831;28;20035;-75
2023/01/13 01:17:05;;;;;;;85.78;64.32;;;;;;;;;;5082463;28;20036;-75
2023/01/13 01:19:30;;;;;;;71.25;55.70;;;;;;;;;;5094411;28;20525;-76
2023/01/13 01:21:55;;;;;;;76.30;55.00;;;;;;;;;;5095031;28;20027;-76
2023/01/13 01:24:21;;;;;;;101.63;68.85;;;;;;;;;;5094310;28;20050;-74
2023/01/13 01:26:46;;;;;;;97.57;66.95;;;;;;;;;;5094669;28;20110;-74
2023/01/13 01:29:14;;;;;;;61.78;47.80;;;;;;;;;;5086231;28;20320;-74
2023/01/13 01:31:39;;;;;;;43.28;37.13;;;;;;;;;;5074527;28;20355;-77
2023/01/13 01:34:05;;;;;;;64.68;54.35;;;;;;;;;;5094692;28;20024;-74
2023/01/13 01:36:30;;;;;;;75.35;54.35;;;;;;;;;;5091018;28;20439;-75
2023/01/13 01:38:56;;;;;;;36.58;31.35;;;;;;;;;;5078504;28;20031;-77
2023/01/13 01:41:23;;;;;;;29.27;26.08;;;;;;;;;;5094586;28;20042;-74
2023/01/13 01:44:05;;;;;;;56.40;41.38;;;;;;;;;;5091124;28;20721;-76
2023/01/13 01:46:32;;;;;;;28.20;25.10;;;;;;;;;;5066282;28;20350;-73
2023/01/13 01:49:21;;;;;;;35.03;30.05;;;;;;;;;;5086758;28;20028;-73
2023/01/13 01:52:01;;;;;;;30.15;25.67;;;;;;;;;;5075354;28;20116;-75
2023/01/13 01:54:49;;;;;;;68.10;49.97;;;;;;;;;;5094300;28;20114;-74
2023/01/13 01:57:21;;;;;;;50.78;38.33;;;;;;;;;;5078850;28;20151;-75
2023/01/13 01:59:47;;;;;;;54.90;41.10;;;;;;;;;;5081562;28;20086;-74
2023/01/13 02:02:13;;;;;;;104.20;73.70;;;;;;;;;;5091418;28;20413;-75
2023/01/13 02:04:39;;;;;;;70.57;51.40;;;;;;;;;;5074229;28;20441;-74
2023/01/13 02:07:05;;;;;;;51.10;43.70;;;;;;;;;;5090631;28;20035;-74
2023/01/13 02:09:31;;;;;;;47.38;41.65;;;;;;;;;;5089954;28;20027;-74
2023/01/13 02:14:41;;;;;;;46.60;41.60;;;;;;;;;;5086631;28;20089;-73
2023/01/13 02:17:24;;;;;;;37.05;33.15;;;;;;;;;;5079284;28;20023;-74
2023/01/13 02:19:55;;;;;;;32.30;28.75;;;;;;;;;;5078653;28;20090;-73
2023/01/13 02:22:50;;;;;;;25.90;23.08;;;;;;;;;;5089743;28;20043;-74
2023/01/13 02:25:34;;;;;;;24.90;22.33;;;;;;;;;;5066550;28;20031;-76
2023/01/13 02:28:20;;;;;;;30.67;27.45;;;;;;;;;;5092328;28;20618;-76
2023/01/13 02:33:53;;;;;;;59.80;44.95;;;;;;;;;;5094740;28;20054;-74
2023/01/13 02:36:21;;;;;;;47.05;38.67;;;;;;;;;;5095547;28;20093;-76
2023/01/13 02:38:49;;;;;;;37.15;33.15;;;;;;;;;;5084764;28;20643;-73
2023/01/13 02:44:07;;;;;;;;;;;;;;;;;;5092269;28;20030;-75
2023/01/13 02:46:32;;;;;;;34.85;30.75;;;;;;;;;;5094621;28;19943;-73
2023/01/13 02:49:00;;;;;;;24.70;22.08;;;;;;;;;;5092405;28;20085;-73
2023/01/13 02:51:27;;;;;;;28.10;25.00;;;;;;;;;;5089903;28;20024;-78
2023/01/13 02:53:57;;;;;;;25.02;22.27;;;;;;;;;;5077164;28;20015;-74
2023/01/13 02:56:22;;;;;;;;;;;;;;;;;;5094623;28;20112;-74
2023/01/13 02:58:49;;;;;;;38.30;28.85;;;;;;;;;;5094957;28;20302;-74
2023/01/13 03:01:14;;;;;;;51.80;37.10;;;;;;;;;;5093648;28;20439;-76
2023/01/13 03:03:40;;;;;;;66.45;47.15;;;;;;;;;;5092311;28;20039;-74
2023/01/13 03:06:25;;;;;;;61.45;45.83;;;;;;;;;;5093892;28;20016;-76
2023/01/13 03:08:50;;;;;;;55.22;44.42;;;;;;;;;;5090736;28;20040;-73
2023/01/13 03:11:18;;;;;;;58.67;46.70;;;;;;;;;;5096765;28;20438;-74
2023/01/13 03:13:55;;;;;;;51.47;44.35;;;;;;;;;;5095083;28;20025;-74
2023/01/13 03:16:20;;;;;;;60.72;49.92;;;;;;;;;;5095685;28;20027;-75
2023/01/13 03:18:54;;;;;;;48.45;40.03;;;;;;;;;;5094474;28;20024;-74
2023/01/13 03:21:24;;;;;;;46.20;38.88;;;;;;;;;;5069897;28;20036;-74
2023/01/13 03:23:50;;;;;;;47.97;40.50;;;;;;;;;;5095321;28;20042;-73
2023/01/13 03:26:21;;;;;;;43.20;36.00;;;;;;;;;;5090636;28;20035;-77
2023/01/13 03:29:01;;;;;;;43.88;37.95;;;;;;;;;;5092381;28;20070;-74
2023/01/13 03:31:30;;;;;;;41.72;34.92;;;;;;;;;;5094109;28;20530;-76
2023/01/13 03:34:08;;;;;;;42.35;36.15;;;;;;;;;;5097356;28;20046;-75
2023/01/13 03:36:34;;;;;;;62.35;50.25;;;;;;;;;;5096056;28;20027;-74
2023/01/13 03:39:03;;;;;;;76.80;55.67;;;;;;;;;;5099310;28;20655;-74
2023/01/13 03:41:35;;;;;;;47.65;39.00;;;;;;;;;;5086720;28;20092;-73
2023/01/13 03:44:23;;;;;;;47.25;38.70;;;;;;;;;;5084845;28;20039;-73
2023/01/13 03:46:58;;;;;;;32.63;28.13;;;;;;;;;;5091543;28;20028;-74
2023/01/13 03:49:25;;;;;;;28.55;23.45;;;;;;;;;;5099262;28;20023;-74
2023/01/13 03:51:53;;;;;;;25.90;22.10;;;;;;;;;;5096441;28;20024;-74
2023/01/13 03:54:20;;;;;;;33.75;29.58;;;;;;;;;;5090910;28;20105;-74
2023/01/13 03:56:48;;;;;;;31.08;27.33;;;;;;;;;;5095281;28;20439;-76
2023/01/13 03:59:17;;;;;;;24.77;22.23;;;;;;;;;;5099103;28;20062;-73
2023/01/13 04:02:01;;;;;;;28.23;25.23;;;;;;;;;;5099131;28;20026;-75
2023/01/13 04:04:29;;;;;;;26.60;23.60;;;;;;;;;;5081280;28;20035;-75
2023/01/13 04:06:56;;;;;;;48.10;35.78;;;;;;;;;;5099895;28;20024;-76
2023/01/13 04:09:40;;;;;;;61.40;40.67;;;;;;;;;;5098908;28;20032;-73
2023/01/13 04:12:08;;;;;;;38.17;29.52;;;;;;;;;;5096126;28;20035;-73
2023/01/13 04:14:34;;;;;;;34.50;26.98;;;;;;;;;;5095257;28;20502;-72
2023/01/13 04:17:00;;;;;;;35.17;28.15;;;;;;;;;;5086093;28;20134;-75
2023/01/13 04:19:25;;;;;;;24.92;20.58;;;;;;;;;;5082931;28;20070;-73
2023/01/13 04:21:50;;;;;;;42.60;35.80;;;;;;;;;;5095879;28;20024;-73
2023/01/13 04:24:16;;;;;;;32.50;28.42;;;;;;;;;;5097654;28;20024;-72
2023/01/13 04:26:41;;;;;;;37.28;32.50;;;;;;;;;;5099619;28;20066;-74
2023/01/13 04:29:06;;;;;;;26.73;23.60;;;;;;;;;;5088913;28;20037;-75
2023/01/13 04:31:31;;;;;;;33.08;28.20;;;;;;;;;;5090485;28;20442;-74
2023/01/13 04:33:57;;;;;;;34.38;27.38;;;;;;;;;;5097428;28;20031;-72
2023/01/13 04:36:26;;;;;;;33.10;28.48;;;;;;;;;;5099023;28;20122;-77
2023/01/13 04:38:52;;;;;;;34.95;28.40;;;;;;;;;;5095866;28;20024;-73
2023/01/13 04:41:17;;;;;;;24.70;21.60;;;;;;;;;;5097269;28;20143;-76
2023/01/13 04:43:42;;;;;;;23.33;20.95;;;;;;;;;;5097053;28;20016;-74
2023/01/13 04:46:08;;;;;;;24.73;21.83;;;;;;;;;;5097496;28;20477;-73
2023/01/13 04:48:33;;;;;;;33.85;26.95;;;;;;;;;;5086544;28;21221;-76
2023/01/13 04:50:58;;;;;;;35.15;29.73;;;;;;;;;;5091911;28;20347;-74
2023/01/13 04:53:24;;;;;;;30.45;26.67;;;;;;;;;;5096270;28;20024;-74
2023/01/13 04:55:49;;;;;;;32.13;27.73;;;;;;;;;;5079355;28;20020;-75
2023/01/13 04:58:14;;;;;;;34.85;29.30;;;;;;;;;;5075469;28;20031;-73
2023/01/13 05:00:40;;;;;;;35.58;28.88;;;;;;;;;;5074425;28;20047;-73
2023/01/13 05:03:05;;;;;;;42.28;37.72;;;;;;;;;;5072697;28;20382;-74
2023/01/13 05:05:30;;;;;;;59.95;46.95;;;;;;;;;;5064874;28;20350;-77
2023/01/13 05:07:56;;;;;;;67.00;53.72;;;;;;;;;;5081336;28;20454;-73
2023/01/13 05:10:21;;;;;;;69.10;56.22;;;;;;;;;;5092078;28;20675;-73
2023/01/13 05:18:15;;;;;;;72.05;53.63;;;;;;;;;;5095945;28;20427;-74
2023/01/13 05:20:40;;;;;;;58.38;46.80;;;;;;;;;;5095305;28;20118;-76
2023/01/13 05:25:50;;;;;;;66.20;48.72;;;;;;;;;;5081252;28;20143;-74
2023/01/13 05:28:15;;;;;;;66.35;48.45;;;;;;;;;;5096776;28;20019;-74
2023/01/13 05:30:42;;;;;;;65.93;48.55;;;;;;;;;;5097638;28;20039;-74
2023/01/13 05:33:10;;;;;;;78.57;59.05;;;;;;;;;;5096409;28;20020;-73
2023/01/13 05:35:37;;;;;;;85.95;63.78;;;;;;;;;;5096159;28;20080;-74
2023/01/13 05:38:02;;;;;;;95.65;69.68;;;;;;;;;;5093928;28;20030;-78
2023/01/13 05:43:18;;;;;;;109.78;78.82;;;;;;;;;;5098188;28;20447;-73
2023/01/13 05:45:45;;;;;;;114.78;86.88;;;;;;;;;;5083368;28;20027;-74
2023/01/13 05:48:10;;;;;;;107.05;82.80;;;;;;;;;;5089707;28;20034;-77
2023/01/13 05:50:35;;;;;;;87.55;72.72;;;;;;;;;;5097349;28;20430;-77
2023/01/13 05:53:00;;;;;;;80.72;67.30;;;;;;;;;;5079097;28;20093;-75
2023/01/13 05:55:26;;;;;;;82.75;70.53;;;;;;;;;;5088397;28;20043;-76
2023/01/13 05:57:51;;;;;;;105.15;84.85;;;;;;;;;;5095201;28;20027;-76
2023/01/13 06:00:17;;;;;;;109.93;90.68;;;;;;;;;;5093013;28;20144;-75
2023/01/13 06:02:42;;;;;;;108.65;94.15;;;;;;;;;;5078179;28;20088;-75
2023/01/13 06:05:08;;;;;;;105.78;91.60;;;;;;;;;;5093799;28;20027;-76
2023/01/13 06:07:33;;;;;;;80.32;71.55;;;;;;;;;;5083804;28;20016;-76
2023/01/13 06:09:58;;;;;;;74.53;62.55;;;;;;;;;;5094860;28;20032;-73
2023/01/13 06:12:24;;;;;;;95.63;80.85;;;;;;;;;;5093780;28;20024;-75
2023/01/13 06:14:49;;;;;;;107.03;89.45;;;;;;;;;;5094147;28;20415;-79
2023/01/13 06:17:14;;;;;;;110.78;89.18;;;;;;;;;;5094861;28;20473;-77
2023/01/13 06:19:40;;;;;;;113.25;97.97;;;;;;;;;;5087450;28;20038;-75
2023/01/13 06:22:15;;;;;;;108.88;95.55;;;;;;;;;;5090577;28;20035;-76
2023/01/13 06:24:41;;;;;;;115.30;102.00;;;;;;;;;;5083713;28;20463;-74
2023/01/13 06:27:07;;;;;;;106.10;87.25;;;;;;;;;;5082948;28;20023;-78
2023/01/13 06:29:32;;;;;;;91.72;78.25;;;;;;;;;;5082204;28;20083;-74
2023/01/13 06:31:58;;;;;;;94.85;81.78;;;;;;;;;;5084475;28;20736;-75
2023/01/13 06:34:24;;;;;;;129.88;112.30;;;;;;;;;;5091050;28;20449;-74
2023/01/13 06:36:50;;;;;;;129.45;114.00;;;;;;;;;;5094934;28;20219;-74
2023/01/13 06:39:18;;;;;;;135.60;120.30;;;;;;;;;;5076734;28;20355;-73
2023/01/13 06:44:28;;;;;;;111.18;96.30;;;;;;;;;;5091362;28;20070;-77
2023/01/13 06:46:53;;;;;;;110.10;96.20;;;;;;;;;;5094390;28;20055;-75
2023/01/13 06:49:19;;;;;;;152.65;120.07;;;;;;;;;;5093020;28;20036;-74
2023/01/13 06:51:45;;;;;;;109.28;90.95;;;;;;;;;;5094078;28;20031;-77
2023/01/13 06:54:10;;;;;;;124.82;98.28;;;;;;;;;;5079734;28;20035;-74
2023/01/13 06:56:35;;;;;;;102.32;84.18;;;;;;;;;;5088016;28;20035;-76
2023/01/13 06:59:01;;;;;;;104.25;86.97;;;;;;;;;;5095410;28;20104;-75
2023/01/13 07:01:26;;;;;;;92.38;76.07;;;;;;;;;;5096867;28;20031;-78
2023/01/13 07:03:51;;;;;;;78.40;66.70;;;;;;;;;;5094423;28;20059;-75
2023/01/13 07:06:17;;;;;;;76.60;63.20;;;;;;;;;;5095685;28;20027;-76
2023/01/13 07:08:42;;;;;;;79.20;65.88;;;;;;;;;;5097898;28;20096;-77
2023/01/13 07:11:07;;;;;;;92.15;78.35;;;;;;;;;;5094206;28;20035;-76
2023/01/13 07:16:22;;;;;;;114.47;94.70;;;;;;;;;;5094962;28;20035;-74
2023/01/13 07:18:48;;;;;;;141.52;118.22;;;;;;;;;;5101492;28;20080;-80
2023/01/13 07:21:17;;;;;;;156.15;129.20;;;;;;;;;;5086196;28;20552;-74
2023/01/13 07:23:43;;;;;;;148.38;121.78;;;;;;;;;;5094460;28;20028;-74
2023/01/13 07:26:09;;;;;;;149.68;121.28;;;;;;;;;;5099555;28;20038;-76
2023/01/13 07:28:35;;;;;;;212.40;169.93;;;;;;;;;;5096557;28;20058;-75
2023/01/13 07:31:00;;;;;;;259.88;203.25;;;;;;;;;;5099241;28;20063;-74
2023/01/13 07:33:25;;;;;;;237.25;188.45;;;;;;;;;;5098154;28;20020;-72
2023/01/13 07:35:56;;;;;;;206.00;175.52;;;;;;;;;;5097057;28;20345;-73
2023/01/13 07:38:21;;;;;;;176.15;146.63;;;;;;;;;;5096921;28;20419;-73
2023/01/13 07:40:46;;;;;;;209.98;180.75;;;;;;;;;;5096384;28;20122;-75
2023/01/13 07:45:57;;;;;;;153.35;126.78;;;;;;;;;;5092845;28;20033;-75
2023/01/13 07:48:22;;;;;;;143.13;122.38;;;;;;;;;;5080875;28;20084;-76
2023/01/13 07:50:48;;;;;;;131.85;112.55;;;;;;;;;;5081690;28;20106;-75
2023/01/13 07:53:13;;;;;;;136.27;119.97;;;;;;;;;;5078323;28;22450;-75
2023/01/13 07:55:42;;;;;;;106.38;90.93;;;;;;;;;;5095350;28;20032;-75
2023/01/13 07:58:08;;;;;;;123.97;99.13;;;;;;;;;;5098194;28;20031;-76
2023/01/13 08:00:33;;;;;;;100.07;82.32;;;;;;;;;;5085291;28;20047;-75
2023/01/13 08:02:59;;;;;;;86.50;71.15;;;;;;;;;;5093639;28;20024;-77
2023/01/13 08:05:24;;;;;;;89.55;76.50;;;;;;;;;;5096327;28;20028;-77
2023/01/13 08:07:50;;;;;;;171.00;142.15;;;;;;;;;;5090742;28;20170;-78
2023/01/13 08:10:15;;;;;;;194.65;159.45;;;;;;;;;;5080949;28;20038;-76
2023/01/13 08:15:24;;;;;;;186.20;149.48;;;;;;;;;;5084608;28;20124;-76
2023/01/13 08:17:49;;;;;;;167.60;134.15;;;;;;;;;;5083189;28;20032;-76
2023/01/13 08:20:15;;;;;;;132.82;107.63;;;;;;;;;;5082153;28;20126;-76
2023/01/13 08:22:40;;;;;;;163.18;128.15;;;;;;;;;;5085730;28;20467;-74
2023/01/13 08:25:06;;;;;;;164.57;129.35;;;;;;;;;;5086052;28;20055;-73
2023/01/13 08:27:31;;;;;;;161.90;126.38;;;;;;;;;;5082771;28;20816;-76
2023/01/13 08:29:56;;;;;;;118.82;97.80;;;;;;;;;;5081189;28;20515;-77
2023/01/13 08:32:22;;;;;;;106.78;87.50;;;;;;;;;;5083228;28;20031;-77
2023/01/13 08:34:47;;;;;;;95.80;81.40;;;;;;;;;;5084707;28;20493;-75
2023/01/13 08:37:12;;;;;;;85.10;70.18;;;;;;;;;;5084202;28;20023;-76
2023/01/13 08:39:37;;;;;;;143.13;108.72;;;;;;;;;;5085188;28;20417;-76
2023/01/13 08:42:03;;;;;;;102.25;84.65;;;;;;;;;;5083108;28;20084;-78
2023/01/13 08:44:29;;;;;;;107.53;90.78;;;;;;;;;;5077398;28;20102;-77
2023/01/13 08:46:55;;;;;;;118.90;95.43;;;;;;;;;;5079266;28;20354;-75
2023/01/13 08:49:20;;;;;;;104.07;79.20;;;;;;;;;;5083527;28;20027;-77
2023/01/13 08:51:46;;;;;;;114.22;81.75;;;;;;;;;;5082715;28;20020;-77
2023/01/13 08:54:11;;;;;;;45.30;36.58;;;;;;;;;;5079763;28;20028;-78
2023/01/13 08:56:37;;;;;;;41.60;35.80;;;;;;;;;;5080580;28;20027;-77
2023/01/13 08:59:03;;;;;;;64.93;57.67;;;;;;;;;;5079947;28;20100;-76
2023/01/13 09:01:28;;;;;;;78.25;66.45;;;;;;;;;;5081669;28;20024;-75
2023/01/13 09:03:54;;;;;;;100.47;80.45;;;;;;;;;;5084522;28;20024;-74
2023/01/13 09:06:19;;;;;;;69.35;59.53;;;;;;;;;;5083843;28;20038;-73
2023/01/13 09:08:45;;;;;;;69.63;62.08;;;;;;;;;;5081524;28;20032;-74
2023/01/13 09:14:21;;;;;;;39.50;35.03;;;;;;;;;;5081616;28;20108;-75
2023/01/13 09:16:47;;;;;;;31.42;27.80;;;;;;;;;;5083222;28;20020;-74
2023/01/13 09:19:12;;;;;;;26.50;23.70;;;;;;;;;;5082927;28;20039;-73
2023/01/13 09:21:38;;;;;;;28.50;24.17;;;;;;;;;;5080814;28;20336;-72
2023/01/13 09:24:03;;;;;;;26.77;23.90;;;;;;;;;;5083088;28;20451;-77
2023/01/13 09:26:28;;;;;;;30.10;26.90;;;;;;;;;;5081753;28;20027;-74
2023/01/13 09:28:54;;;;;;;80.97;62.83;;;;;;;;;;5082392;28;20033;-74
2023/01/13 09:31:19;;;;;;;70.82;53.95;;;;;;;;;;5082018;28;20031;-74
2023/01/13 09:36:28;;;;;;;50.88;40.97;;;;;;;;;;5079292;28;20036;-76
2023/01/13 09:38:53;;;;;;;58.85;45.38;;;;;;;;;;5080684;28;20304;-74
2023/01/13 09:44:06;;;;;;;44.15;36.20;;;;;;;;;;5081176;28;20081;-74
2023/01/13 09:46:42;;;;;;;46.67;39.20;;;;;;;;;;5078668;28;20139;-76
2023/01/13 09:49:19;;;;;;;58.40;48.22;;;;;;;;;;5079208;28;20024;-76
2023/01/13 09:51:47;;;;;;;58.38;50.05;;;;;;;;;;5081271;28;20024;-75
2023/01/13 09:54:35;;;;;;;70.40;55.13;;;;;;;;;;5082619;28;20016;-74
2023/01/13 09:57:01;;;;;;;60.55;50.85;;;;;;;;;;5080973;28;20032;-74
2023/01/13 09:59:28;;;;;;;55.60;43.72;;;;;;;;;;5082801;28;20046;-74
2023/01/13 10:01:59;;;;;;;48.60;43.15;;;;;;;;;;5073249;28;20032;-77
2023/01/13 10:04:24;;;;;;;49.80;42.38;;;;;;;;;;5081363;28;20431;-76
2023/01/13 10:06:58;;;;;;;77.40;66.75;;;;;;;;;;5080061;28;20030;-76
2023/01/13 10:09:31;;;;;;;94.45;84.38;;;;;;;;;;5082518;28;20032;-77
2023/01/13 10:14:48;;;;;;;60.72;51.08;;;;;;;;;;5082540;28;20031;-77
2023/01/13 10:17:51;;;;;;;52.67;42.70;;;;;;;;;;5080457;28;20027;-74
2023/01/13 10:20:17;;;;;;;49.40;41.00;;;;;;;;;;5016371;28;20152;-76
2023/01/13 10:23:01;;;;;;;39.95;33.53;;;;;;;;;;5020108;28;20112;-75
2023/01/13 10:25:27;;;;;;;87.55;58.33;;;;;;;;;;5019247;28;20033;-74
2023/01/13 10:27:54;;;;;;;51.83;42.35;;;;;;;;;;5018481;28;20033;-75
2023/01/13 10:30:30;;;;;;;46.03;40.05;;;;;;;;;;5017234;28;20155;-77
2023/01/13 10:32:58;;;;;;;49.42;44.08;;;;;;;;;;5020056;28;20465;-75
2023/01/13 10:35:42;;;;;;;75.00;56.55;;;;;;;;;;5020920;28;20779;-75
2023/01/13 10:38:14;;;;;;;53.92;45.03;;;;;;;;;;5016489;28;20029;-76
2023/01/13 10:40:45;;;;;;;62.33;51.92;;;;;;;;;;5018138;28;20168;-75
2023/01/13 10:43:11;;;;;;;49.53;42.65;;;;;;;;;;5019327;28;20017;-75
2023/01/13 10:45:36;;;;;;;37.25;32.08;;;;;;;;;;5020828;28;20051;-75
2023/01/13 10:48:04;;;;;;;34.75;30.42;;;;;;;;;;5020740;28;20157;-77
2023/01/13 10:50:33;;;;;;;43.20;38.17;;;;;;;;;;5033469;28;20039;-76
2023/01/13 10:53:02;;;;;;;54.60;47.05;;;;;;;;;;5068305;28;20443;-75
2023/01/13 10:55:32;;;;;;;53.58;46.30;;;;;;;;;;5091225;28;20356;-75
2023/01/13 10:58:18;;;;;;;43.42;35.42;;;;;;;;;;5075651;28;20115;-75
2023/01/13 11:00:44;;;;;;;49.03;39.50;;;;;;;;;;5093742;28;20127;-75
2023/01/13 11:03:20;;;;;;;72.57;56.75;;;;;;;;;;5096470;28;20114;-75
2023/01/13 11:05:56;;;;;;;54.05;47.60;;;;;;;;;;5094212;28;20039;-75
2023/01/13 11:08:28;;;;;;;45.15;39.28;;;;;;;;;;5094519;28;20039;-76
2023/01/13 11:10:55;;;;;;;49.03;39.88;;;;;;;;;;5094170;28;20028;-75
2023/01/13 11:13:35;;;;;;;35.28;31.35;;;;;;;;;;5091554;28;20109;-75
2023/01/13 11:16:09;;;;;;;61.47;47.90;;;;;;;;;;5095214;28;20019;-74
2023/01/13 11:19:00;;;;;;;66.53;55.95;;;;;;;;;;5096049;28;20045;-76
2023/01/13 11:21:28;;;;;;;62.03;53.33;;;;;;;;;;5095355;28;20039;-77
2023/01/13 11:24:02;;;;;;;79.68;68.53;;;;;;;;;;5084494;28;20124;-75
2023/01/13 11:26:37;;;;;;;125.57;96.32;;;;;;;;;;5091452;28;20059;-74
2023/01/13 11:29:17;;;;;;;162.35;119.13;;;;;;;;;;5093578;28;20012;-77
2023/01/13 11:31:45;;;;;;;216.75;152.95;;;;;;;;;;5095548;28;21229;-75
2023/01/13 11:34:22;;;;;;;247.18;210.30;;;;;;;;;;5091441;28;20034;-76
2023/01/13 11:36:51;;;;;;;143.55;124.50;;;;;;;;;;5091582;28;20034;-75
2023/01/13 11:39:16;;;;;;;133.60;114.18;;;;;;;;;;5093056;28;20031;-74
2023/01/13 11:41:44;;;;;;;92.93;76.88;;;;;;;;;;5093797;28;20035;-77
2023/01/13 11:44:09;;;;;;;85.80;72.07;;;;;;;;;;5092406;28;20116;-74
2023/01/13 11:46:35;;;;;;;83.05;69.40;;;;;;;;;;5095058;28;20067;-75
2023/01/13 11:49:00;;;;;;;116.60;99.25;;;;;;;;;;5095302;28;20105;-74
2023/01/13 11:51:35;;;;;;;125.55;98.55;;;;;;;;;;5093637;28;20439;-75
2023/01/13 11:54:09;;;;;;;124.85;98.70;;;;;;;;;;5095840;28;20104;-76
2023/01/13 11:56:34;;;;;;;133.73;112.10;;;;;;;;;;5097913;28;20032;-75
2023/01/13 11:59:18;;;;;;;140.95;117.15;;;;;;;;;;5079225;28;20043;-74
2023/01/13 12:02:03;;;;;;;124.15;104.13;;;;;;;;;;5098186;28;20051;-75
2023/01/13 12:04:30;;;;;;;198.27;172.32;;;;;;;;;;5097231;28;20039;-75
2023/01/13 12:07:11;;;;;;;139.70;118.10;;;;;;;;;;5098478;28;20034;-76
2023/01/13 12:09:49;;;;;;;169.38;132.20;;;;;;;;;;5099287;28;20024;-74
2023/01/13 12:12:26;;;;;;;160.20;126.78;;;;;;;;;;5094699;28;20073;-75
2023/01/13 12:15:03;;;;;;;135.88;104.20;;;;;;;;;;5096033;28;20036;-74
2023/01/13 12:17:36;;;;;;;85.20;64.80;;;;;;;;;;5096663;28;20023;-74
2023/01/13 12:20:21;;;;;;;80.47;59.85;;;;;;;;;;5094335;28;20035;-79
2023/01/13 12:22:47;;;;;;;82.30;66.53;;;;;;;;;;5092592;28;20020;-75
2023/01/13 12:25:16;;;;;;;98.70;84.28;;;;;;;;;;5099112;28;20965;-73
2023/01/13 12:27:50;;;;;;;69.32;54.92;;;;;;;;;;5099630;28;20051;-75
2023/01/13 12:30:39;;;;;;;78.80;61.88;;;;;;;;;;5096906;28;20023;-78
2023/01/13 12:33:25;;;;;;;72.88;54.33;;;;;;;;;;5094698;28;20113;-74
2023/01/13 12:35:58;;;;;;;68.47;52.55;;;;;;;;;;5081660;28;20027;-76
2023/01/13 12:38:29;;;;;;;108.63;77.95;;;;;;;;;;5097677;28;20458;-75
2023/01/13 12:41:15;;;;;;;62.83;48.83;;;;;;;;;;5094539;28;20081;-81
2023/01/13 12:46:26;;;;;;;129.27;89.03;;;;;;;;;;5094234;28;20366;-75
2023/01/13 12:48:54;;;;;;;188.20;114.45;;;;;;;;;;5097256;28;20023;-76
2023/01/13 12:51:26;;;;;;;250.25;162.05;;;;;;;;;;5097379;28;20027;-78
2023/01/13 12:53:53;;;;;;;271.30;177.00;;;;;;;;;;5095588;28;20358;-75
2023/01/13 12:56:36;;;;;;;302.50;201.88;;;;;;;;;;5099122;28;20123;-76
2023/01/13 12:59:20;;;;;;;165.48;112.20;;;;;;;;;;5097341;28;20430;-76
2023/01/13 13:02:11;;;;;;;155.18;109.95;;;;;;;;;;5096672;28;20145;-75
2023/01/13 13:04:50;;;;;;;104.35;70.80;;;;;;;;;;5069584;28;20403;-76
2023/01/13 13:07:18;;;;;;;76.68;57.17;;;;;;;;;;5095998;28;20016;-75
2023/01/13 13:09:48;;;;;;;112.60;80.85;;;;;;;;;;5098424;28;20486;-77
2023/01/13 13:15:19;;;;;;;100.07;74.60;;;;;;;;;;5095794;28;20110;-77
2023/01/13 13:17:57;;;;;;;117.07;88.47;;;;;;;;;;5095525;28;20041;-75
2023/01/13 13:20:41;;;;;;;76.25;61.28;;;;;;;;;;5096701;28;20454;-76
2023/01/13 13:23:25;;;;;;;68.75;50.22;;;;;;;;;;5095089;28;20034;-75
2023/01/13 13:26:09;;;;;;;64.75;50.45;;;;;;;;;;5098844;28;20038;-74
2023/01/13 13:28:40;;;;;;;74.10;58.30;;;;;;;;;;5093948;28;20027;-76
2023/01/13 13:31:16;;;;;;;54.28;44.17;;;;;;;;;;5073856;28;20517;-73
2023/01/13 13:34:04;;;;;;;82.22;62.47;;;;;;;;;;5089020;28;20752;-75
2023/01/13 13:36:48;;;;;;;108.25;85.38;;;;;;;;;;5073061;28;20134;-74
2023/01/13 13:47:44;;;;;;;92.35;61.40;;;;;;;;;;5094206;28;20069;-75
2023/01/13 13:50:19;;;;;;;90.03;60.88;;;;;;;;;;5080224;28;20047;-75
2023/01/13 13:52:53;;;;;;;50.92;43.25;;;;;;;;;;5089935;28;20039;-73
2023/01/13 13:55:20;;;;;;;122.40;64.70;;;;;;;;;;5094229;28;20118;-73
2023/01/13 13:57:46;;;;;;;82.70;57.17;;;;;;;;;;5094849;28;20019;-74
2023/01/13 14:00:15;;;;;;;158.00;94.28;;;;;;;;;;5094683;28;20043;-77
2023/01/13 14:02:47;;;;;;;240.10;123.38;;;;;;;;;;5096328;28;20061;-76
2023/01/13 14:05:12;;;;;;;496.50;254.20;;;;;;;;;;5096043;28;20026;-74
2023/01/13 14:07:41;;;;;;;180.05;109.68;;;;;;;;;;5097522;28;20044;-74
2023/01/13 14:10:12;;;;;;;560.30;314.65;;;;;;;;;;5092484;28;20028;-74
2023/01/13 14:12:37;;;;;;;354.45;187.40;;;;;;;;;;5095512;28;20034;-74
2023/01/13 14:15:03;;;;;;;135.18;90.55;;;;;;;;;;5094411;28;20023;-77
2023/01/13 14:17:29;;;;;;;111.38;80.82;;;;;;;;;;5088472;28;20023;-74
2023/01/13 14:20:06;;;;;;;130.00;91.60;;;;;;;;;;5068917;28;20028;-74
2023/01/13 14:22:32;;;;;;;157.18;109.80;;;;;;;;;;5091467;28;20494;-77
2023/01/13 14:24:57;;;;;;;83.68;68.78;;;;;;;;;;5086617;28;20029;-74
2023/01/13 14:27:26;;;;;;;92.82;71.40;;;;;;;;;;5082165;28;20336;-74
2023/01/13 14:29:57;;;;;;;111.82;85.70;;;;;;;;;;5078406;28;20023;-75
2023/01/13 14:32:25;;;;;;;73.70;62.90;;;;;;;;;;5079229;28;20071;-73
2023/01/13 14:34:51;;;;;;;73.28;59.55;;;;;;;;;;5094257;28;20023;-73
2023/01/13 14:37:24;;;;;;;58.53;48.42;;;;;;;;;;5094362;28;20348;-73
2023/01/13 14:39:49;;;;;;;65.85;53.47;;;;;;;;;;5080067;28;20031;-73
2023/01/13 14:42:16;;;;;;;76.53;66.50;;;;;;;;;;5078219;28;20023;-74
2023/01/13 14:44:45;;;;;;;76.65;68.22;;;;;;;;;;5098128;28;20051;-74
2023/01/13 14:47:19;;;;;;;74.70;61.25;;;;;;;;;;5091504;28;20028;-73
2023/01/13 14:49:55;;;;;;;67.47;56.08;;;;;;;;;;5095079;28;20517;-73
2023/01/13 14:52:23;;;;;;;66.40;56.15;;;;;;;;;;5095841;28;20039;-73
2023/01/13 14:55:11;;;;;;;55.90;45.67;;;;;;;;;;5094903;28;20063;-77
2023/01/13 14:57:38;;;;;;;65.57;52.80;;;;;;;;;;5096259;28;20024;-75
2023/01/13 15:00:03;;;;;;;71.40;55.80;;;;;;;;;;5076506;28;20570;-74
2023/01/13 15:02:29;;;;;;;101.38;72.15;;;;;;;;;;5094454;28;20031;-74
2023/01/13 15:04:57;;;;;;;121.40;88.95;;;;;;;;;;5094304;28;20061;-74
2023/01/13 15:07:27;;;;;;;192.07;133.23;;;;;;;;;;5079179;28;20340;-75
2023/01/13 15:09:54;;;;;;;172.80;118.32;;;;;;;;;;5079615;28;20553;-77
2023/01/13 15:12:22;;;;;;;154.93;110.55;;;;;;;;;;5086920;28;20041;-74
2023/01/13 15:14:48;;;;;;;153.98;113.25;;;;;;;;;;5089998;28;20166;-74
2023/01/13 15:17:15;;;;;;;121.53;91.05;;;;;;;;;;5090134;28;20134;-75
2023/01/13 15:19:40;;;;;;;130.20;97.93;;;;;;;;;;5095627;28;20038;-74
2023/01/13 15:22:05;;;;;;;134.40;103.10;;;;;;;;;;5080550;28;20027;-74